sensor_id;sensor_type;location;lat;lon;timestamp;pressure;altitude;pressure_sealevel;temperature;humidity
21838;BME280;11081;45.946;6.140;2023-03-26T00:02:03;94892.53;;;10.49;66.27
21838;BME280;11081;45.946;6.140;2023-03-26T00:04:31;94891.59;;;10.55;66.22
21838;BME280;11081;45.946;6.140;2023-03-26T00:07:00;94899.53;;;10.60;66.38
21838;BME280;11081;45.946;6.140;2023-03-26T00:09:28;94914.31;;;10.66;66.07
21838;BME280;11081;45.946;6.140;2023-03-26T00:11:56;94924.28;;;10.69;66.00
21838;BME280;11081;45.946;6.140;2023-03-26T00:14:24;94933.34;;;10.55;67.18
21838;BME280;11081;45.946;6.140;2023-03-26T00:16:52;94938.66;;;10.25;69.51
21838;BME280;11081;45.946;6.140;2023-03-26T00:19:22;94944.69;;;10.19;69.45
21838;BME280;11081;45.946;6.140;2023-03-26T00:21:50;94942.16;;;10.30;68.79
21838;BME280;11081;45.946;6.140;2023-03-26T00:24:18;94923.16;;;10.42;68.33
21838;BME280;11081;45.946;6.140;2023-03-26T00:26:47;94956.22;;;10.29;69.27
21838;BME280;11081;45.946;6.140;2023-03-26T00:29:19;94965.41;;;10.02;70.26
21838;BME280;11081;45.946;6.140;2023-03-26T00:31:48;94967.81;;;10.03;70.83
21838;BME280;11081;45.946;6.140;2023-03-26T00:34:16;94980.03;;;10.21;69.68
21838;BME280;11081;45.946;6.140;2023-03-26T00:36:46;94964.63;;;10.31;70.24
21838;BME280;11081;45.946;6.140;2023-03-26T00:39:20;94968.94;;;10.26;70.61
21838;BME280;11081;45.946;6.140;2023-03-26T00:41:49;94964.63;;;10.31;71.13
21838;BME280;11081;45.946;6.140;2023-03-26T00:44:20;94954.53;;;10.35;70.42
21838;BME280;11081;45.946;6.140;2023-03-26T00:46:48;94933.22;;;10.38;71.02
21838;BME280;11081;45.946;6.140;2023-03-26T00:49:16;94937.63;;;10.37;70.37
21838;BME280;11081;45.946;6.140;2023-03-26T00:51:45;94917.34;;;10.39;71.43
21838;BME280;11081;45.946;6.140;2023-03-26T00:54:13;94913.13;;;10.38;70.71
21838;BME280;11081;45.946;6.140;2023-03-26T00:56:41;94922.13;;;10.43;70.94
21838;BME280;11081;45.946;6.140;2023-03-26T00:59:09;94932.97;;;10.39;71.79
21838;BME280;11081;45.946;6.140;2023-03-26T01:01:37;94934.22;;;10.25;71.75
21838;BME280;11081;45.946;6.140;2023-03-26T01:04:24;94924.63;;;10.19;72.51
21838;BME280;11081;45.946;6.140;2023-03-26T01:07:00;94921.63;;;10.22;73.87
21838;BME280;11081;45.946;6.140;2023-03-26T01:09:34;94916.09;;;10.30;73.63
21838;BME280;11081;45.946;6.140;2023-03-26T01:12:06;94914.38;;;10.36;74.00
21838;BME280;11081;45.946;6.140;2023-03-26T01:14:36;94912.72;;;10.42;73.61
21838;BME280;11081;45.946;6.140;2023-03-26T01:17:06;94906.25;;;10.44;74.70
21838;BME280;11081;45.946;6.140;2023-03-26T01:19:39;94895.91;;;10.37;74.07
21838;BME280;11081;45.946;6.140;2023-03-26T01:22:14;94901.81;;;10.45;73.16
21838;BME280;11081;45.946;6.140;2023-03-26T01:24:44;94893.44;;;10.43;72.94
21838;BME280;11081;45.946;6.140;2023-03-26T01:27:25;94881.84;;;10.38;73.80
21838;BME280;11081;45.946;6.140;2023-03-26T01:30:01;94888.28;;;10.36;73.51
21838;BME280;11081;45.946;6.140;2023-03-26T01:32:40;94880.25;;;10.37;72.14
21838;BME280;11081;45.946;6.140;2023-03-26T01:35:29;94882.75;;;10.32;72.48
21838;BME280;11081;45.946;6.140;2023-03-26T01:38:05;94890.00;;;10.30;71.99
21838;BME280;11081;45.946;6.140;2023-03-26T01:40:42;94881.94;;;10.32;72.22
21838;BME280;11081;45.946;6.140;2023-03-26T01:43:20;94880.25;;;10.37;72.82
21838;BME280;11081;45.946;6.140;2023-03-26T01:45:51;94888.22;;;10.43;72.04
21838;BME280;11081;45.946;6.140;2023-03-26T01:48:27;94874.00;;;10.38;72.24
21838;BME280;11081;45.946;6.140;2023-03-26T01:50:56;94869.69;;;10.32;72.77
21838;BME280;11081;45.946;6.140;2023-03-26T01:53:25;94866.06;;;10.33;71.93
21838;BME280;11081;45.946;6.140;2023-03-26T01:56:00;94870.25;;;10.34;73.11
21838;BME280;11081;45.946;6.140;2023-03-26T01:58:36;94881.50;;;10.35;72.73
21838;BME280;11081;45.946;6.140;2023-03-26T02:01:16;94888.53;;;10.34;72.85
21838;BME280;11081;45.946;6.140;2023-03-26T02:03:54;94886.38;;;10.31;72.56
21838;BME280;11081;45.946;6.140;2023-03-26T02:06:29;94883.19;;;10.29;72.15
21838;BME280;11081;45.946;6.140;2023-03-26T02:09:05;94882.28;;;10.35;71.97
21838;BME280;11081;45.946;6.140;2023-03-26T02:11:37;94882.28;;;10.35;72.27
21838;BME280;11081;45.946;6.140;2023-03-26T02:14:07;94881.16;;;10.31;72.96
21838;BME280;11081;45.946;6.140;2023-03-26T02:16:35;94873.44;;;10.36;72.37
21838;BME280;11081;45.946;6.140;2023-03-26T02:19:04;94872.97;;;10.39;72.32
21838;BME280;11081;45.946;6.140;2023-03-26T02:21:41;94875.47;;;10.34;72.87
21838;BME280;11081;45.946;6.140;2023-03-26T02:24:09;94865.50;;;10.31;73.50
21838;BME280;11081;45.946;6.140;2023-03-26T02:26:39;94868.47;;;10.23;74.21
21838;BME280;11081;45.946;6.140;2023-03-26T02:29:10;94857.28;;;10.16;74.37
21838;BME280;11081;45.946;6.140;2023-03-26T02:31:41;94832.69;;;10.12;74.51
21838;BME280;11081;45.946;6.140;2023-03-26T02:34:09;94825.44;;;10.14;75.54
21838;BME280;11081;45.946;6.140;2023-03-26T02:36:44;94825.31;;;10.09;74.73
21838;BME280;11081;45.946;6.140;2023-03-26T02:39:12;94830.97;;;10.06;75.02
21838;BME280;11081;45.946;6.140;2023-03-26T02:41:49;94827.00;;;10.03;74.88
21838;BME280;11081;45.946;6.140;2023-03-26T02:44:17;94829.41;;;10.05;75.33
21838;BME280;11081;45.946;6.140;2023-03-26T02:46:57;94825.22;;;10.04;74.59
21838;BME280;11081;45.946;6.140;2023-03-26T02:49:44;94818.97;;;10.05;73.72
21838;BME280;11081;45.946;6.140;2023-03-26T02:52:19;94813.31;;;10.08;74.29
21838;BME280;11081;45.946;6.140;2023-03-26T02:54:49;94796.88;;;10.07;74.45
21838;BME280;11081;45.946;6.140;2023-03-26T02:57:24;94781.69;;;10.04;74.78
21838;BME280;11081;45.946;6.140;2023-03-26T02:59:54;94774.09;;;10.03;74.35
21838;BME280;11081;45.946;6.140;2023-03-26T03:02:55;94765.69;;;10.01;75.45
21838;BME280;11081;45.946;6.140;2023-03-26T03:05:31;94760.81;;;10.04;74.06
21838;BME280;11081;45.946;6.140;2023-03-26T03:08:20;94731.56;;;10.02;74.71
21838;BME280;11081;45.946;6.140;2023-03-26T03:11:13;94723.97;;;10.01;75.39
21838;BME280;11081;45.946;6.140;2023-03-26T03:13:46;94718.78;;;10.01;74.84
21838;BME280;11081;45.946;6.140;2023-03-26T03:16:34;94733.97;;;10.04;73.49
21838;BME280;11081;45.946;6.140;2023-03-26T03:19:08;94721.03;;;10.09;73.53
21838;BME280;11081;45.946;6.140;2023-03-26T03:21:39;94722.59;;;10.10;73.08
21838;BME280;11081;45.946;6.140;2023-03-26T03:24:09;94703.34;;;10.11;72.56
21838;BME280;11081;45.946;6.140;2023-03-26T03:26:42;94689.28;;;10.12;73.77
21838;BME280;11081;45.946;6.140;2023-03-26T03:29:38;94686.09;;;10.10;73.19
21838;BME280;11081;45.946;6.140;2023-03-26T03:32:25;94689.19;;;10.07;73.94
21838;BME280;11081;45.946;6.140;2023-03-26T03:34:59;94684.06;;;10.12;72.23
21838;BME280;11081;45.946;6.140;2023-03-26T03:37:27;94692.44;;;10.14;71.94
21838;BME280;11081;45.946;6.140;2023-03-26T03:39:57;94693.56;;;10.18;72.79
21838;BME280;11081;45.946;6.140;2023-03-26T03:42:28;94700.03;;;10.16;72.22
21838;BME280;11081;45.946;6.140;2023-03-26T03:45:01;94699.72;;;10.12;71.69
21838;BME280;11081;45.946;6.140;2023-03-26T03:47:49;94689.72;;;10.09;72.97
21838;BME280;11081;45.946;6.140;2023-03-26T03:50:23;94674.56;;;10.06;71.93
21838;BME280;11081;45.946;6.140;2023-03-26T03:53:05;94675.22;;;10.13;72.00
21838;BME280;11081;45.946;6.140;2023-03-26T03:55:33;94673.06;;;10.10;71.82
21838;BME280;11081;45.946;6.140;2023-03-26T03:58:04;94675.69;;;10.10;71.49
21838;BME280;11081;45.946;6.140;2023-03-26T04:00:36;94673.16;;;10.15;71.33
21838;BME280;11081;45.946;6.140;2023-03-26T04:03:28;94669.06;;;10.19;71.14
21838;BME280;11081;45.946;6.140;2023-03-26T04:06:04;94654.59;;;10.23;70.47
21838;BME280;11081;45.946;6.140;2023-03-26T04:08:34;94654.16;;;10.26;70.20
21838;BME280;11081;45.946;6.140;2023-03-26T04:11:04;94642.78;;;10.32;69.15
21838;BME280;11081;45.946;6.140;2023-03-26T04:13:52;94645.94;;;10.34;69.13
21838;BME280;11081;45.946;6.140;2023-03-26T04:16:54;94635.50;;;10.34;68.78
21838;BME280;11081;45.946;6.140;2023-03-26T04:19:23;94631.88;;;10.35;69.49
21838;BME280;11081;45.946;6.140;2023-03-26T04:21:53;94652.28;;;10.38;69.63
21838;BME280;11081;45.946;6.140;2023-03-26T04:24:21;94649.44;;;10.40;68.57
21838;BME280;11081;45.946;6.140;2023-03-26T04:27:24;94641.41;;;10.42;68.36
21838;BME280;11081;45.946;6.140;2023-03-26T04:30:06;94628.56;;;10.40;68.86
21838;BME280;11081;45.946;6.140;2023-03-26T04:32:37;94630.63;;;10.38;68.58
21838;BME280;11081;45.946;6.140;2023-03-26T04:35:06;94628.25;;;10.36;68.90
21838;BME280;11081;45.946;6.140;2023-03-26T04:37:37;94632.34;;;10.32;68.57
21838;BME280;11081;45.946;6.140;2023-03-26T04:40:13;94631.78;;;10.30;69.28
21838;BME280;11081;45.946;6.140;2023-03-26T04:42:51;94630.44;;;10.28;69.57
21838;BME280;11081;45.946;6.140;2023-03-26T04:45:40;94615.13;;;10.31;69.62
21838;BME280;11081;45.946;6.140;2023-03-26T04:48:10;94607.53;;;10.30;69.49
21838;BME280;11081;45.946;6.140;2023-03-26T04:50:42;94598.34;;;10.27;69.95
21838;BME280;11081;45.946;6.140;2023-03-26T04:53:13;94578.50;;;10.26;69.52
21838;BME280;11081;45.946;6.140;2023-03-26T04:56:05;94570.13;;;10.24;70.41
21838;BME280;11081;45.946;6.140;2023-03-26T04:58:57;94576.38;;;10.23;69.76
21838;BME280;11081;45.946;6.140;2023-03-26T05:01:28;94574.78;;;10.22;70.01
21838;BME280;11081;45.946;6.140;2023-03-26T05:03:58;94568.78;;;10.22;70.21
21838;BME280;11081;45.946;6.140;2023-03-26T05:06:27;94553.94;;;10.22;70.99
21838;BME280;11081;45.946;6.140;2023-03-26T05:08:57;94540.28;;;10.20;70.95
21838;BME280;11081;45.946;6.140;2023-03-26T05:11:44;94545.97;;;10.17;70.41
21838;BME280;11081;45.946;6.140;2023-03-26T05:14:13;94548.47;;;10.12;71.34
21838;BME280;11081;45.946;6.140;2023-03-26T05:16:42;94546.91;;;10.11;71.63
21838;BME280;11081;45.946;6.140;2023-03-26T05:19:12;94541.22;;;10.14;72.04
21838;BME280;11081;45.946;6.140;2023-03-26T05:21:40;94546.44;;;10.14;71.20
21838;BME280;11081;45.946;6.140;2023-03-26T05:24:08;94537.59;;;10.15;71.99
21838;BME280;11081;45.946;6.140;2023-03-26T05:26:36;94531.81;;;10.13;71.64
21838;BME280;11081;45.946;6.140;2023-03-26T05:29:04;94520.34;;;10.14;71.44
21838;BME280;11081;45.946;6.140;2023-03-26T05:31:35;94512.63;;;10.19;71.27
21838;BME280;11081;45.946;6.140;2023-03-26T05:34:03;94517.41;;;10.22;71.54
21838;BME280;11081;45.946;6.140;2023-03-26T05:36:34;94526.91;;;10.28;70.48
21838;BME280;11081;45.946;6.140;2023-03-26T05:39:09;94544.13;;;10.29;70.12
21838;BME280;11081;45.946;6.140;2023-03-26T05:42:16;94532.59;;;10.25;70.18
21838;BME280;11081;45.946;6.140;2023-03-26T05:45:02;94525.25;;;10.22;70.90
21838;BME280;11081;45.946;6.140;2023-03-26T05:47:32;94509.44;;;10.17;71.48
21838;BME280;11081;45.946;6.140;2023-03-26T05:50:01;94509.38;;;10.12;71.10
21838;BME280;11081;45.946;6.140;2023-03-26T05:52:30;94516.72;;;10.15;71.21
21838;BME280;11081;45.946;6.140;2023-03-26T05:55:28;94527.63;;;10.12;70.63
21838;BME280;11081;45.946;6.140;2023-03-26T05:58:21;94549.03;;;10.14;70.84
21838;BME280;11081;45.946;6.140;2023-03-26T06:01:10;94542.00;;;10.15;71.50
21838;BME280;11081;45.946;6.140;2023-03-26T06:04:05;94555.75;;;10.10;71.83
21838;BME280;11081;45.946;6.140;2023-03-26T06:06:38;94562.06;;;10.14;71.30
21838;BME280;11081;45.946;6.140;2023-03-26T06:09:07;94574.56;;;10.12;72.25
21838;BME280;11081;45.946;6.140;2023-03-26T06:11:38;94602.22;;;10.13;73.89
21838;BME280;11081;45.946;6.140;2023-03-26T06:14:07;94616.72;;;10.09;74.92
21838;BME280;11081;45.946;6.140;2023-03-26T06:16:39;94631.41;;;9.87;76.09
21838;BME280;11081;45.946;6.140;2023-03-26T06:19:17;94637.31;;;9.82;77.91
21838;BME280;11081;45.946;6.140;2023-03-26T06:21:56;94628.13;;;9.80;78.13
21838;BME280;11081;45.946;6.140;2023-03-26T06:24:31;94634.13;;;9.80;79.54
21838;BME280;11081;45.946;6.140;2023-03-26T06:27:19;94648.63;;;9.76;81.05
21838;BME280;11081;45.946;6.140;2023-03-26T06:30:00;94655.19;;;9.78;81.82
21838;BME280;11081;45.946;6.140;2023-03-26T06:32:37;94653.41;;;9.79;82.48
21838;BME280;11081;45.946;6.140;2023-03-26T06:35:09;94646.94;;;9.82;81.59
21838;BME280;11081;45.946;6.140;2023-03-26T06:37:37;94637.31;;;9.82;81.59
21838;BME280;11081;45.946;6.140;2023-03-26T06:40:08;94628.78;;;9.87;81.87
21838;BME280;11081;45.946;6.140;2023-03-26T06:42:48;94627.78;;;9.88;82.75
21838;BME280;11081;45.946;6.140;2023-03-26T06:45:49;94624.69;;;9.91;83.30
21838;BME280;11081;45.946;6.140;2023-03-26T06:48:36;94620.50;;;9.90;84.22
21838;BME280;11081;45.946;6.140;2023-03-26T06:51:23;94607.47;;;9.90;84.40
21838;BME280;11081;45.946;6.140;2023-03-26T06:54:12;94597.06;;;9.90;84.55
21838;BME280;11081;45.946;6.140;2023-03-26T06:56:51;94597.50;;;9.87;85.03
21838;BME280;11081;45.946;6.140;2023-03-26T06:59:38;94589.94;;;9.85;85.75
21838;BME280;11081;45.946;6.140;2023-03-26T07:02:25;94586.44;;;9.80;84.72
21838;BME280;11081;45.946;6.140;2023-03-26T07:05:12;94586.88;;;9.76;85.84
21838;BME280;11081;45.946;6.140;2023-03-26T07:07:59;94580.06;;;9.75;85.95
21838;BME280;11081;45.946;6.140;2023-03-26T07:10:45;94574.84;;;9.75;86.42
21838;BME280;11081;45.946;6.140;2023-03-26T07:13:34;94579.41;;;9.68;87.19
21838;BME280;11081;45.946;6.140;2023-03-26T07:16:26;94579.31;;;9.63;86.87
21838;BME280;11081;45.946;6.140;2023-03-26T07:19:21;94571.41;;;9.58;87.02
21838;BME280;11081;45.946;6.140;2023-03-26T07:21:51;94552.00;;;9.54;88.04
21838;BME280;11081;45.946;6.140;2023-03-26T07:24:42;94537.75;;;9.45;88.17
21838;BME280;11081;45.946;6.140;2023-03-26T07:27:37;94545.91;;;9.37;89.85
21838;BME280;11081;45.946;6.140;2023-03-26T07:30:18;94558.81;;;9.32;90.15
21838;BME280;11081;45.946;6.140;2023-03-26T07:33:10;94562.78;;;9.34;90.98
21838;BME280;11081;45.946;6.140;2023-03-26T07:36:23;94583.53;;;9.41;90.19
21838;BME280;11081;45.946;6.140;2023-03-26T07:39:35;94574.69;;;9.42;90.08
21838;BME280;11081;45.946;6.140;2023-03-26T07:42:29;94567.44;;;9.44;89.97
21838;BME280;11081;45.946;6.140;2023-03-26T07:45:25;94558.59;;;9.45;89.49
21838;BME280;11081;45.946;6.140;2023-03-26T07:48:24;94567.44;;;9.44;89.76
21838;BME280;11081;45.946;6.140;2023-03-26T07:51:29;94571.72;;;9.50;88.64
21838;BME280;11081;45.946;6.140;2023-03-26T07:54:26;94579.31;;;9.52;89.08
21838;BME280;11081;45.946;6.140;2023-03-26T07:56:57;94576.47;;;9.53;88.96
21838;BME280;11081;45.946;6.140;2023-03-26T07:59:51;94571.25;;;9.53;90.04
21838;BME280;11081;45.946;6.140;2023-03-26T08:06:02;94601.72;;;9.53;90.89
21838;BME280;11081;45.946;6.140;2023-03-26T08:08:51;94599.03;;;9.59;90.67
21838;BME280;11081;45.946;6.140;2023-03-26T08:12:04;94603.66;;;9.57;91.69
21838;BME280;11081;45.946;6.140;2023-03-26T08:14:46;94594.84;;;9.58;91.13
21838;BME280;11081;45.946;6.140;2023-03-26T08:17:23;94586.91;;;9.53;92.84
21838;BME280;11081;45.946;6.140;2023-03-26T08:20:06;94580.00;;;9.59;91.89
21838;BME280;11081;45.946;6.140;2023-03-26T08:22:40;94573.63;;;9.55;91.91
21838;BME280;11081;45.946;6.140;2023-03-26T08:25:17;94570.38;;;9.59;92.33
21838;BME280;11081;45.946;6.140;2023-03-26T08:27:53;94557.44;;;9.64;90.97
21838;BME280;11081;45.946;6.140;2023-03-26T08:30:24;94556.06;;;9.73;90.38
21838;BME280;11081;45.946;6.140;2023-03-26T08:32:55;94568.53;;;9.71;90.73
21838;BME280;11081;45.946;6.140;2023-03-26T08:35:25;94572.81;;;9.77;90.92
21838;BME280;11081;45.946;6.140;2023-03-26T08:37:55;94555.25;;;9.85;89.28
21838;BME280;11081;45.946;6.140;2023-03-26T08:40:48;94540.50;;;9.90;87.59
21838;BME280;11081;45.946;6.140;2023-03-26T08:43:43;94530.97;;;9.96;85.33
21838;BME280;11081;45.946;6.140;2023-03-26T08:46:46;94541.50;;;10.01;84.72
21838;BME280;11081;45.946;6.140;2023-03-26T08:49:51;94548.94;;;10.09;82.77
21838;BME280;11081;45.946;6.140;2023-03-26T08:52:34;94562.06;;;10.14;81.53
21838;BME280;11081;45.946;6.140;2023-03-26T08:55:28;94561.59;;;10.17;81.33
21838;BME280;11081;45.946;6.140;2023-03-26T08:58:23;94568.88;;;10.15;80.63
21838;BME280;11081;45.946;6.140;2023-03-26T09:04:25;94564.13;;;10.12;80.31
21838;BME280;11081;45.946;6.140;2023-03-26T09:10:31;94563.34;;;10.12;81.40
21838;BME280;11081;45.946;6.140;2023-03-26T09:13:31;94551.63;;;10.14;80.06
21838;BME280;11081;45.946;6.140;2023-03-26T09:16:24;94549.75;;;10.09;79.91
21838;BME280;11081;45.946;6.140;2023-03-26T09:22:16;94551.25;;;9.94;81.16
21838;BME280;11081;45.946;6.140;2023-03-26T09:25:17;94564.19;;;9.89;81.88
21838;BME280;11081;45.946;6.140;2023-03-26T09:28:25;94549.81;;;9.86;82.24
21838;BME280;11081;45.946;6.140;2023-03-26T09:31:16;94550.59;;;9.87;81.67
21838;BME280;11081;45.946;6.140;2023-03-26T09:34:06;94545.38;;;9.87;81.84
21838;BME280;11081;45.946;6.140;2023-03-26T09:36:53;94551.16;;;9.89;82.02
21838;BME280;11081;45.946;6.140;2023-03-26T09:39:34;94550.94;;;9.90;82.37
21838;BME280;11081;45.946;6.140;2023-03-26T09:42:08;94558.03;;;9.95;81.05
21838;BME280;11081;45.946;6.140;2023-03-26T09:45:02;94560.31;;;10.03;81.56
21838;BME280;11081;45.946;6.140;2023-03-26T09:48:10;94555.56;;;10.00;81.04
21838;BME280;11081;45.946;6.140;2023-03-26T09:50:53;94556.34;;;10.00;81.65
21838;BME280;11081;45.946;6.140;2023-03-26T09:53:52;94543.09;;;10.02;81.51
21838;BME280;11081;45.946;6.140;2023-03-26T09:56:39;94545.69;;;10.02;80.81
21838;BME280;11081;45.946;6.140;2023-03-26T10:02:16;94545.78;;;10.07;80.37
21838;BME280;11081;45.946;6.140;2023-03-26T10:05:43;94546.47;;;10.02;80.94
21838;BME280;11081;45.946;6.140;2023-03-26T10:11:22;94555.88;;;10.03;81.02
21838;BME280;11081;45.946;6.140;2023-03-26T10:14:01;94550.53;;;10.10;79.73
21838;BME280;11081;45.946;6.140;2023-03-26T10:16:39;94546.91;;;10.11;80.16
21838;BME280;11081;45.946;6.140;2023-03-26T10:19:44;94542.78;;;10.15;79.11
21838;BME280;11081;45.946;6.140;2023-03-26T10:22:26;94556.38;;;10.17;79.02
21838;BME280;11081;45.946;6.140;2023-03-26T10:25:21;94562.31;;;10.24;79.48
21838;BME280;11081;45.946;6.140;2023-03-26T10:28:19;94571.81;;;10.30;78.65
21838;BME280;11081;45.946;6.140;2023-03-26T10:31:12;94569.75;;;10.32;77.47
21838;BME280;11081;45.946;6.140;2023-03-26T10:33:50;94564.06;;;10.35;78.28
21838;BME280;11081;45.946;6.140;2023-03-26T10:36:30;94557.25;;;10.34;78.06
21838;BME280;11081;45.946;6.140;2023-03-26T10:42:23;94548.41;;;10.35;76.61
21838;BME280;11081;45.946;6.140;2023-03-26T10:45:10;94538.06;;;10.41;76.37
21838;BME280;11081;45.946;6.140;2023-03-26T10:47:54;94539.09;;;10.39;77.15
21838;BME280;11081;45.946;6.140;2023-03-26T10:50:48;94536.59;;;10.45;77.01
21838;BME280;11081;45.946;6.140;2023-03-26T10:53:27;94534.06;;;10.50;77.14
21838;BME280;11081;45.946;6.140;2023-03-26T10:56:05;94535.16;;;10.54;77.50
21838;BME280;11081;45.946;6.140;2023-03-26T10:58:36;94532.63;;;10.59;76.30
21838;BME280;11081;45.946;6.140;2023-03-26T11:01:22;94531.06;;;10.58;76.23
21838;BME280;11081;45.946;6.140;2023-03-26T11:03:52;94531.63;;;10.60;76.18
21838;BME280;11081;45.946;6.140;2023-03-26T11:06:29;94537.41;;;10.62;76.62
21838;BME280;11081;45.946;6.140;2023-03-26T11:09:06;94530.44;;;10.67;76.40
21838;BME280;11081;45.946;6.140;2023-03-26T11:11:41;94527.59;;;10.69;75.98
21838;BME280;11081;45.946;6.140;2023-03-26T11:14:18;94520.94;;;10.78;75.62
21838;BME280;11081;45.946;6.140;2023-03-26T11:17:07;94511.16;;;10.85;75.98
21838;BME280;11081;45.946;6.140;2023-03-26T11:20:02;94499.75;;;10.91;76.57
21838;BME280;11081;45.946;6.140;2023-03-26T11:22:40;94508.16;;;10.93;76.21
21838;BME280;11081;45.946;6.140;2023-03-26T11:25:25;94500.88;;;10.95;76.18
21838;BME280;11081;45.946;6.140;2023-03-26T11:28:05;94503.22;;;10.97;75.46
21838;BME280;11081;45.946;6.140;2023-03-26T11:30:41;94504.09;;;11.03;76.32
21838;BME280;11081;45.946;6.140;2023-03-26T11:33:17;94502.59;;;11.07;76.11
21838;BME280;11081;45.946;6.140;2023-03-26T11:35:48;94498.97;;;11.08;75.63
21838;BME280;11081;45.946;6.140;2023-03-26T11:38:21;94482.81;;;11.11;75.04
21838;BME280;11081;45.946;6.140;2023-03-26T11:40:53;94477.09;;;11.14;75.02
21838;BME280;11081;45.946;6.140;2023-03-26T11:43:43;94478.50;;;11.21;75.39
21838;BME280;11081;45.946;6.140;2023-03-26T11:46:17;94474.53;;;11.36;74.34
21838;BME280;11081;45.946;6.140;2023-03-26T11:48:47;94465.41;;;11.38;75.01
21838;BME280;11081;45.946;6.140;2023-03-26T11:51:22;94454.66;;;11.56;74.70
21838;BME280;11081;45.946;6.140;2023-03-26T11:53:50;94446.38;;;11.65;74.42
21838;BME280;11081;45.946;6.140;2023-03-26T11:56:26;94432.28;;;11.66;73.56
21838;BME280;11081;45.946;6.140;2023-03-26T11:59:00;94430.22;;;11.68;73.52
21838;BME280;11081;45.946;6.140;2023-03-26T12:01:41;94424.00;;;11.74;72.26
21838;BME280;11081;45.946;6.140;2023-03-26T12:04:11;94431.81;;;11.69;72.46
21838;BME280;11081;45.946;6.140;2023-03-26T12:06:50;94424.50;;;11.71;72.46
21838;BME280;11081;45.946;6.140;2023-03-26T12:09:19;94411.97;;;11.73;72.81
21838;BME280;11081;45.946;6.140;2023-03-26T12:11:52;94401.22;;;11.69;72.20
21838;BME280;11081;45.946;6.140;2023-03-26T12:14:23;94384.16;;;11.61;72.01
21838;BME280;11081;45.946;6.140;2023-03-26T12:16:59;94364.72;;;11.52;71.85
21838;BME280;11081;45.946;6.140;2023-03-26T12:19:35;94354.16;;;11.42;72.06
21838;BME280;11081;45.946;6.140;2023-03-26T12:22:05;94349.91;;;11.36;73.06
21838;BME280;11081;45.946;6.140;2023-03-26T12:25:00;94322.00;;;11.15;74.22
21838;BME280;11081;45.946;6.140;2023-03-26T12:27:29;94309.88;;;11.04;74.34
21838;BME280;11081;45.946;6.140;2023-03-26T12:30:09;94323.31;;;10.95;74.63
21838;BME280;11081;45.946;6.140;2023-03-26T12:32:39;94321.75;;;10.94;75.00
21838;BME280;11081;45.946;6.140;2023-03-26T12:35:15;94320.66;;;10.90;74.87
21838;BME280;11081;45.946;6.140;2023-03-26T12:37:46;94314.34;;;10.86;75.41
21838;BME280;11081;45.946;6.140;2023-03-26T12:40:29;94310.63;;;10.82;74.31
21838;BME280;11081;45.946;6.140;2023-03-26T12:43:01;94318.47;;;10.82;74.70
21838;BME280;11081;45.946;6.140;2023-03-26T12:45:53;94312.34;;;10.72;73.85
21838;BME280;11081;45.946;6.140;2023-03-26T12:48:41;94320.41;;;10.70;73.57
21838;BME280;11081;45.946;6.140;2023-03-26T12:51:14;94320.22;;;10.77;73.00
21838;BME280;11081;45.946;6.140;2023-03-26T12:54:09;94321.50;;;10.74;73.84
21838;BME280;11081;45.946;6.140;2023-03-26T12:56:46;94340.81;;;10.73;72.83
21838;BME280;11081;45.946;6.140;2023-03-26T12:59:48;94375.00;;;10.55;73.03
21838;BME280;11081;45.946;6.140;2023-03-26T13:02:51;94401.88;;;10.38;76.48
21838;BME280;11081;45.946;6.140;2023-03-26T13:05:39;94433.78;;;9.03;88.44
21838;BME280;11081;45.946;6.140;2023-03-26T13:08:26;94464.28;;;7.48;100.00
21838;BME280;11081;45.946;6.140;2023-03-26T13:11:05;94486.72;;;6.62;100.00
21838;BME280;11081;45.946;6.140;2023-03-26T13:13:52;94483.91;;;6.39;100.00
21838;BME280;11081;45.946;6.140;2023-03-26T13:16:33;94462.38;;;6.63;100.00
21838;BME280;11081;45.946;6.140;2023-03-26T13:19:05;94459.81;;;6.82;100.00
21838;BME280;11081;45.946;6.140;2023-03-26T13:21:42;94466.75;;;7.06;100.00
21838;BME280;11081;45.946;6.140;2023-03-26T13:24:23;94488.09;;;7.26;100.00
21838;BME280;11081;45.946;6.140;2023-03-26T13:27:04;94496.44;;;7.65;100.00
21838;BME280;11081;45.946;6.140;2023-03-26T13:29:44;94486.00;;;8.02;100.00
21838;BME280;11081;45.946;6.140;2023-03-26T13:32:28;94487.94;;;8.36;100.00
21838;BME280;11081;45.946;6.140;2023-03-26T13:35:13;94502.00;;;8.59;98.67
21838;BME280;11081;45.946;6.140;2023-03-26T13:37:47;94518.41;;;8.71;98.20
21838;BME280;11081;45.946;6.140;2023-03-26T13:40:23;94518.53;;;8.76;98.86
21838;BME280;11081;45.946;6.140;2023-03-26T13:43:13;94523.97;;;8.86;99.81
21838;BME280;11081;45.946;6.140;2023-03-26T13:45:53;94522.16;;;8.98;97.73
21838;BME280;11081;45.946;6.140;2023-03-26T13:48:26;94531.66;;;9.04;96.55
21838;BME280;11081;45.946;6.140;2023-03-26T13:51:00;94525.88;;;9.14;96.31
21838;BME280;11081;45.946;6.140;2023-03-26T13:53:37;94519.47;;;9.16;96.19
21838;BME280;11081;45.946;6.140;2023-03-26T13:56:09;94520.13;;;9.24;94.77
21838;BME280;11081;45.946;6.140;2023-03-26T13:58:43;94510.59;;;9.41;94.36
21838;BME280;11081;45.946;6.140;2023-03-26T14:01:16;94509.44;;;9.60;93.98
21838;BME280;11081;45.946;6.140;2023-03-26T14:03:52;94496.22;;;9.78;93.33
21838;BME280;11081;45.946;6.140;2023-03-26T14:06:34;94500.84;;;9.88;94.02
21838;BME280;11081;45.946;6.140;2023-03-26T14:09:13;94502.75;;;9.93;94.66
21838;BME280;11081;45.946;6.140;2023-03-26T14:11:51;94507.56;;;9.84;94.17
21838;BME280;11081;45.946;6.140;2023-03-26T14:14:30;94506.75;;;9.84;93.96
21838;BME280;11081;45.946;6.140;2023-03-26T14:17:04;94504.00;;;9.90;92.36
21838;BME280;11081;45.946;6.140;2023-03-26T14:19:54;94504.53;;;10.04;100.00
21838;BME280;11081;45.946;6.140;2023-03-26T14:22:37;94511.41;;;10.67;91.97
21838;BME280;11081;45.946;6.140;2023-03-26T14:25:36;94506.69;;;10.35;91.46
21838;BME280;11081;45.946;6.140;2023-03-26T14:28:18;94517.41;;;10.22;90.64
21838;BME280;11081;45.946;6.140;2023-03-26T14:31:01;94505.75;;;10.42;92.26